createdAt,value
2018-03-23T08:28:10.526Z,24.47
2018-03-23T08:33:11.251Z,24.43
2018-03-23T08:35:39.468Z,22.40
2018-03-23T09:10:14.147Z,25.23
2018-03-23T09:12:42.446Z,24.50
2018-03-23T09:15:11.027Z,19.90
2018-03-23T09:17:39.167Z,23.60
2018-03-23T09:20:06.947Z,20.20
2018-03-23T09:57:03.777Z,23.95
2018-03-23T09:59:31.630Z,25.13
2018-03-23T10:01:59.871Z,24.37
2018-03-23T10:04:27.846Z,22.40
2018-03-23T10:06:55.993Z,25.00
2018-03-23T10:09:25.077Z,26.83
2018-03-23T10:11:53.072Z,23.07
2018-03-23T10:14:21.772Z,21.00
2018-03-23T12:27:27.309Z,15.10
2018-03-23T12:32:23.446Z,17.27
2018-03-23T12:52:06.267Z,14.15
2018-03-23T13:48:45.128Z,15.70
2018-03-23T14:06:20.461Z,16.50
2018-03-23T14:08:48.323Z,19.50
2018-03-23T14:43:15.608Z,18.50
2018-03-23T14:45:43.799Z,17.35
2018-03-23T14:48:11.869Z,18.40
2018-03-23T14:50:39.829Z,20.20
2018-03-23T14:55:35.369Z,18.17
2018-03-23T15:05:27.198Z,18.50
2018-03-23T15:07:55.970Z,17.57
2018-03-23T15:10:23.969Z,20.47
2018-03-23T15:12:52.008Z,18.00
2018-03-23T15:15:22.950Z,22.10
2018-03-23T15:17:51.648Z,20.90
2018-03-23T16:26:47.607Z,2.27
2018-03-23T16:29:15.505Z,1.87
2018-03-23T16:31:44.365Z,2.40
2018-03-23T16:34:13.426Z,2.27
2018-03-23T16:36:41.973Z,2.30
2018-03-23T16:39:11.005Z,2.43
2018-03-23T16:56:24.945Z,2.30
2018-03-23T17:01:20.589Z,3.25
2018-03-23T17:03:49.408Z,2.90
2018-03-23T17:06:17.449Z,3.85
2018-03-23T17:08:46.107Z,2.60
2018-03-23T17:11:13.890Z,2.75
2018-03-23T18:07:59.154Z,3.50
2018-03-23T18:13:53.588Z,3.07
2018-03-23T18:16:24.148Z,2.40
2018-03-23T18:26:51.107Z,3.63
2018-03-23T18:36:42.310Z,3.07
2018-03-23T18:39:10.199Z,4.07
2018-03-23T18:41:38.209Z,5.03
2018-03-23T18:44:06.869Z,4.00
2018-03-23T18:46:34.891Z,5.43
2018-03-23T18:49:03.086Z,5.73
2018-03-23T18:51:31.161Z,6.13
2018-03-23T18:53:59.226Z,6.97
2018-03-23T19:06:16.428Z,4.53
2018-03-23T19:08:44.254Z,4.97
2018-03-23T19:18:35.736Z,4.70
2018-03-23T19:21:03.914Z,5.73
2018-03-23T19:23:31.824Z,4.27
2018-03-23T19:25:59.711Z,3.80
2018-03-23T19:28:27.469Z,3.70
2018-03-23T19:30:55.313Z,4.80
2018-03-23T19:33:23.236Z,3.40
2018-03-23T19:35:51.309Z,4.35
2018-03-23T19:38:19.176Z,3.23
2018-03-23T19:40:47.968Z,3.50
2018-03-23T19:43:15.908Z,4.80
2018-03-23T19:45:44.255Z,4.23
2018-03-23T19:48:12.211Z,3.40
2018-03-23T19:50:40.838Z,3.70
2018-03-23T19:53:08.749Z,4.53
2018-03-23T19:55:36.547Z,5.87
2018-03-23T19:58:04.406Z,4.90
2018-03-23T20:00:32.134Z,4.07
2018-03-23T20:03:00.048Z,3.85
2018-03-23T20:05:27.869Z,4.53
2018-03-23T20:07:55.725Z,3.53
2018-03-23T20:10:23.886Z,7.43
2018-03-23T20:40:11.689Z,4.30
2018-03-23T20:42:39.427Z,5.20
2018-03-23T20:45:07.531Z,3.63
2018-03-23T20:47:35.628Z,5.17
2018-03-23T20:50:03.847Z,5.20
2018-03-23T20:52:31.594Z,4.50
2018-03-23T20:54:59.509Z,5.30
2018-03-23T20:57:28.708Z,4.80
2018-03-23T21:04:51.731Z,5.50
2018-03-23T21:09:47.164Z,4.93
2018-03-23T21:12:14.950Z,5.23
2018-03-23T21:50:25.371Z,5.30
2018-03-23T22:00:21.797Z,5.20
2018-03-23T22:02:51.319Z,6.20
2018-03-23T22:05:19.640Z,8.83
2018-03-23T22:32:21.441Z,6.00
2018-03-23T22:34:49.921Z,5.20
2018-03-23T22:49:35.673Z,5.43
2018-03-23T22:52:04.157Z,7.23
